sensor_id;sensor_type;location;lat;lon;timestamp;P1;durP1;ratioP1;P2;durP2;ratioP2
50219;SDS011;36110;51.536;7.562;2023-05-19T00:01:35;2.85;;;1.40;;
50219;SDS011;36110;51.536;7.562;2023-05-19T00:04:01;1.60;;;1.50;;
50219;SDS011;36110;51.536;7.562;2023-05-19T00:06:29;1.80;;;1.48;;
50219;SDS011;36110;51.536;7.562;2023-05-19T00:09:03;1.55;;;1.40;;
50219;SDS011;36110;51.536;7.562;2023-05-19T00:11:29;2.42;;;1.55;;
50219;SDS011;36110;51.536;7.562;2023-05-19T00:13:56;2.25;;;1.45;;
50219;SDS011;36110;51.536;7.562;2023-05-19T00:16:23;1.52;;;1.42;;
50219;SDS011;36110;51.536;7.562;2023-05-19T00:18:49;1.50;;;1.40;;
50219;SDS011;36110;51.536;7.562;2023-05-19T00:21:15;1.77;;;1.67;;
50219;SDS011;36110;51.536;7.562;2023-05-19T00:23:41;1.60;;;1.50;;
50219;SDS011;36110;51.536;7.562;2023-05-19T00:26:06;1.65;;;1.40;;
50219;SDS011;36110;51.536;7.562;2023-05-19T00:28:31;2.00;;;1.60;;
50219;SDS011;36110;51.536;7.562;2023-05-19T00:30:57;2.25;;;1.63;;
50219;SDS011;36110;51.536;7.562;2023-05-19T00:33:22;2.03;;;1.40;;
50219;SDS011;36110;51.536;7.562;2023-05-19T00:35:47;1.40;;;1.30;;
50219;SDS011;36110;51.536;7.562;2023-05-19T00:38:13;2.28;;;1.40;;
50219;SDS011;36110;51.536;7.562;2023-05-19T00:40:38;1.77;;;1.48;;
50219;SDS011;36110;51.536;7.562;2023-05-19T00:43:03;1.75;;;1.52;;
50219;SDS011;36110;51.536;7.562;2023-05-19T00:45:32;1.50;;;1.40;;
50219;SDS011;36110;51.536;7.562;2023-05-19T00:47:58;1.30;;;1.20;;
50219;SDS011;36110;51.536;7.562;2023-05-19T00:50:23;2.58;;;1.88;;
50219;SDS011;36110;51.536;7.562;2023-05-19T00:52:49;1.83;;;1.40;;
50219;SDS011;36110;51.536;7.562;2023-05-19T00:55:15;1.70;;;1.60;;
50219;SDS011;36110;51.536;7.562;2023-05-19T00:57:41;2.25;;;1.48;;
50219;SDS011;36110;51.536;7.562;2023-05-19T01:00:07;1.38;;;1.25;;
50219;SDS011;36110;51.536;7.562;2023-05-19T01:02:33;1.50;;;1.40;;
50219;SDS011;36110;51.536;7.562;2023-05-19T01:04:58;1.40;;;1.30;;
50219;SDS011;36110;51.536;7.562;2023-05-19T01:07:24;1.75;;;1.38;;
50219;SDS011;36110;51.536;7.562;2023-05-19T01:09:50;1.40;;;1.30;;
50219;SDS011;36110;51.536;7.562;2023-05-19T01:12:15;1.75;;;1.60;;
50219;SDS011;36110;51.536;7.562;2023-05-19T01:14:41;1.42;;;1.30;;
50219;SDS011;36110;51.536;7.562;2023-05-19T01:17:08;1.52;;;1.40;;
50219;SDS011;36110;51.536;7.562;2023-05-19T01:22:11;1.50;;;1.30;;
50219;SDS011;36110;51.536;7.562;2023-05-19T01:33:07;2.25;;;1.50;;
50219;SDS011;36110;51.536;7.562;2023-05-19T01:35:36;2.47;;;1.40;;
50219;SDS011;36110;51.536;7.562;2023-05-19T01:38:04;1.85;;;1.67;;
50219;SDS011;36110;51.536;7.562;2023-05-19T01:40:32;1.55;;;1.42;;
50219;SDS011;36110;51.536;7.562;2023-05-19T01:42:58;3.20;;;1.50;;
50219;SDS011;36110;51.536;7.562;2023-05-19T01:45:25;1.98;;;1.42;;
50219;SDS011;36110;51.536;7.562;2023-05-19T01:47:53;1.45;;;1.35;;
50219;SDS011;36110;51.536;7.562;2023-05-19T01:50:20;1.40;;;1.30;;
50219;SDS011;36110;51.536;7.562;2023-05-19T01:52:46;2.05;;;1.50;;
50219;SDS011;36110;51.536;7.562;2023-05-19T01:55:11;1.90;;;1.50;;
50219;SDS011;36110;51.536;7.562;2023-05-19T02:00:24;1.73;;;1.52;;
50219;SDS011;36110;51.536;7.562;2023-05-19T02:14:18;1.60;;;1.50;;
50219;SDS011;36110;51.536;7.562;2023-05-19T02:16:46;1.27;;;1.17;;
50219;SDS011;36110;51.536;7.562;2023-05-19T02:19:19;1.50;;;1.40;;
50219;SDS011;36110;51.536;7.562;2023-05-19T02:21:56;1.60;;;1.50;;
50219;SDS011;36110;51.536;7.562;2023-05-19T02:24:21;2.70;;;1.40;;
50219;SDS011;36110;51.536;7.562;2023-05-19T02:26:47;1.50;;;1.40;;
50219;SDS011;36110;51.536;7.562;2023-05-19T02:29:14;1.60;;;1.50;;
50219;SDS011;36110;51.536;7.562;2023-05-19T02:31:40;2.22;;;1.40;;
50219;SDS011;36110;51.536;7.562;2023-05-19T02:34:05;1.50;;;1.40;;
50219;SDS011;36110;51.536;7.562;2023-05-19T02:36:32;2.15;;;1.45;;
50219;SDS011;36110;51.536;7.562;2023-05-19T02:39:02;2.42;;;1.40;;
50219;SDS011;36110;51.536;7.562;2023-05-19T02:41:28;1.52;;;1.40;;
50219;SDS011;36110;51.536;7.562;2023-05-19T02:43:54;1.48;;;1.35;;
50219;SDS011;36110;51.536;7.562;2023-05-19T02:46:19;1.75;;;1.63;;
50219;SDS011;36110;51.536;7.562;2023-05-19T02:48:44;1.50;;;1.40;;
50219;SDS011;36110;51.536;7.562;2023-05-19T02:51:10;2.05;;;1.60;;
50219;SDS011;36110;51.536;7.562;2023-05-19T02:53:35;1.50;;;1.40;;
50219;SDS011;36110;51.536;7.562;2023-05-19T02:56:01;1.77;;;1.55;;
50219;SDS011;36110;51.536;7.562;2023-05-19T02:58:26;1.50;;;1.40;;
50219;SDS011;36110;51.536;7.562;2023-05-19T03:00:52;2.53;;;1.33;;
50219;SDS011;36110;51.536;7.562;2023-05-19T03:03:17;1.83;;;1.30;;
50219;SDS011;36110;51.536;7.562;2023-05-19T03:05:42;1.50;;;1.40;;
50219;SDS011;36110;51.536;7.562;2023-05-19T03:08:08;2.08;;;1.55;;
50219;SDS011;36110;51.536;7.562;2023-05-19T03:10:33;2.20;;;1.50;;
50219;SDS011;36110;51.536;7.562;2023-05-19T03:12:59;2.13;;;1.70;;
50219;SDS011;36110;51.536;7.562;2023-05-19T03:15:24;1.48;;;1.38;;
50219;SDS011;36110;51.536;7.562;2023-05-19T03:17:50;2.08;;;1.63;;
50219;SDS011;36110;51.536;7.562;2023-05-19T03:20:15;2.03;;;1.65;;
50219;SDS011;36110;51.536;7.562;2023-05-19T03:22:41;1.30;;;1.20;;
50219;SDS011;36110;51.536;7.562;2023-05-19T03:25:07;1.88;;;1.50;;
50219;SDS011;36110;51.536;7.562;2023-05-19T03:27:32;1.77;;;1.60;;
50219;SDS011;36110;51.536;7.562;2023-05-19T03:29:57;1.63;;;1.50;;
50219;SDS011;36110;51.536;7.562;2023-05-19T03:32:23;2.85;;;1.60;;
50219;SDS011;36110;51.536;7.562;2023-05-19T03:34:48;1.88;;;1.30;;
50219;SDS011;36110;51.536;7.562;2023-05-19T03:37:13;1.50;;;1.40;;
50219;SDS011;36110;51.536;7.562;2023-05-19T03:39:39;1.55;;;1.45;;
50219;SDS011;36110;51.536;7.562;2023-05-19T03:42:04;1.65;;;1.50;;
50219;SDS011;36110;51.536;7.562;2023-05-19T03:44:30;1.63;;;1.35;;
50219;SDS011;36110;51.536;7.562;2023-05-19T03:46:55;1.90;;;1.50;;
50219;SDS011;36110;51.536;7.562;2023-05-19T03:49:20;1.60;;;1.50;;
50219;SDS011;36110;51.536;7.562;2023-05-19T03:51:46;1.50;;;1.40;;
50219;SDS011;36110;51.536;7.562;2023-05-19T03:54:11;1.58;;;1.40;;
50219;SDS011;36110;51.536;7.562;2023-05-19T03:56:37;1.58;;;1.48;;
50219;SDS011;36110;51.536;7.562;2023-05-19T04:01:51;1.58;;;1.40;;
50219;SDS011;36110;51.536;7.562;2023-05-19T04:04:30;1.52;;;1.42;;
50219;SDS011;36110;51.536;7.562;2023-05-19T04:07:07;2.08;;;1.70;;
50219;SDS011;36110;51.536;7.562;2023-05-19T04:09:33;3.83;;;1.40;;
50219;SDS011;36110;51.536;7.562;2023-05-19T04:12:01;1.45;;;1.35;;
50219;SDS011;36110;51.536;7.562;2023-05-19T04:14:26;2.35;;;1.60;;
50219;SDS011;36110;51.536;7.562;2023-05-19T04:16:55;1.23;;;1.23;;
50219;SDS011;36110;51.536;7.562;2023-05-19T04:19:20;1.55;;;1.40;;
50219;SDS011;36110;51.536;7.562;2023-05-19T04:21:45;1.63;;;1.50;;
50219;SDS011;36110;51.536;7.562;2023-05-19T04:24:11;1.40;;;1.30;;
50219;SDS011;36110;51.536;7.562;2023-05-19T04:26:36;2.53;;;1.52;;
50219;SDS011;36110;51.536;7.562;2023-05-19T04:33:05;3.38;;;1.80;;
50219;SDS011;36110;51.536;7.562;2023-05-19T04:39:24;1.60;;;1.50;;
50219;SDS011;36110;51.536;7.562;2023-05-19T04:42:27;1.65;;;1.50;;
50219;SDS011;36110;51.536;7.562;2023-05-19T04:44:55;1.65;;;1.33;;
50219;SDS011;36110;51.536;7.562;2023-05-19T04:47:25;1.60;;;1.45;;
50219;SDS011;36110;51.536;7.562;2023-05-19T04:50:08;1.40;;;1.30;;
50219;SDS011;36110;51.536;7.562;2023-05-19T04:55:37;2.13;;;1.67;;
50219;SDS011;36110;51.536;7.562;2023-05-19T05:01:24;1.45;;;1.35;;
50219;SDS011;36110;51.536;7.562;2023-05-19T05:04:23;1.40;;;1.30;;
50219;SDS011;36110;51.536;7.562;2023-05-19T05:07:07;1.50;;;1.40;;
50219;SDS011;36110;51.536;7.562;2023-05-19T05:09:38;1.67;;;1.38;;
50219;SDS011;36110;51.536;7.562;2023-05-19T05:12:07;1.63;;;1.40;;
50219;SDS011;36110;51.536;7.562;2023-05-19T05:14:33;1.92;;;1.38;;
50219;SDS011;36110;51.536;7.562;2023-05-19T05:17:01;1.40;;;1.30;;
50219;SDS011;36110;51.536;7.562;2023-05-19T05:19:27;1.40;;;1.30;;
50219;SDS011;36110;51.536;7.562;2023-05-19T05:21:53;1.50;;;1.40;;
50219;SDS011;36110;51.536;7.562;2023-05-19T05:24:18;1.35;;;1.25;;
50219;SDS011;36110;51.536;7.562;2023-05-19T05:26:44;2.00;;;1.70;;
50219;SDS011;36110;51.536;7.562;2023-05-19T05:29:09;1.70;;;1.60;;
50219;SDS011;36110;51.536;7.562;2023-05-19T05:31:34;1.92;;;1.30;;
50219;SDS011;36110;51.536;7.562;2023-05-19T05:34:03;1.30;;;1.20;;
50219;SDS011;36110;51.536;7.562;2023-05-19T05:36:34;9.43;;;4.47;;
50219;SDS011;36110;51.536;7.562;2023-05-19T05:39:13;4.85;;;2.90;;
50219;SDS011;36110;51.536;7.562;2023-05-19T05:41:39;8.85;;;4.55;;
50219;SDS011;36110;51.536;7.562;2023-05-19T05:44:04;9.50;;;4.78;;
50219;SDS011;36110;51.536;7.562;2023-05-19T05:46:30;10.40;;;4.78;;
50219;SDS011;36110;51.536;7.562;2023-05-19T05:48:56;8.15;;;4.40;;
50219;SDS011;36110;51.536;7.562;2023-05-19T05:51:21;9.40;;;4.57;;
50219;SDS011;36110;51.536;7.562;2023-05-19T05:53:50;8.80;;;5.20;;
50219;SDS011;36110;51.536;7.562;2023-05-19T05:56:16;12.05;;;5.25;;
50219;SDS011;36110;51.536;7.562;2023-05-19T05:58:42;9.68;;;4.47;;
50219;SDS011;36110;51.536;7.562;2023-05-19T06:01:08;5.93;;;4.05;;
50219;SDS011;36110;51.536;7.562;2023-05-19T06:03:39;10.57;;;4.60;;
50219;SDS011;36110;51.536;7.562;2023-05-19T06:06:05;5.97;;;3.85;;
50219;SDS011;36110;51.536;7.562;2023-05-19T06:08:30;9.15;;;4.35;;
50219;SDS011;36110;51.536;7.562;2023-05-19T06:10:56;9.18;;;4.70;;
50219;SDS011;36110;51.536;7.562;2023-05-19T06:13:22;9.07;;;4.22;;
50219;SDS011;36110;51.536;7.562;2023-05-19T06:15:48;6.60;;;3.85;;
50219;SDS011;36110;51.536;7.562;2023-05-19T06:18:17;8.02;;;4.38;;
50219;SDS011;36110;51.536;7.562;2023-05-19T06:20:42;13.90;;;4.40;;
50219;SDS011;36110;51.536;7.562;2023-05-19T06:23:08;10.18;;;4.43;;
50219;SDS011;36110;51.536;7.562;2023-05-19T06:25:33;9.40;;;4.45;;
50219;SDS011;36110;51.536;7.562;2023-05-19T06:27:58;6.82;;;3.97;;
50219;SDS011;36110;51.536;7.562;2023-05-19T06:30:24;7.50;;;3.85;;
50219;SDS011;36110;51.536;7.562;2023-05-19T06:32:49;5.30;;;3.35;;
50219;SDS011;36110;51.536;7.562;2023-05-19T06:35:15;8.82;;;4.25;;
50219;SDS011;36110;51.536;7.562;2023-05-19T06:37:40;12.27;;;4.85;;
50219;SDS011;36110;51.536;7.562;2023-05-19T06:40:06;10.70;;;3.40;;
50219;SDS011;36110;51.536;7.562;2023-05-19T06:42:32;6.63;;;3.65;;
50219;SDS011;36110;51.536;7.562;2023-05-19T06:44:57;8.27;;;3.20;;
50219;SDS011;36110;51.536;7.562;2023-05-19T06:47:22;6.50;;;3.30;;
50219;SDS011;36110;51.536;7.562;2023-05-19T06:49:48;8.35;;;3.63;;
50219;SDS011;36110;51.536;7.562;2023-05-19T06:52:15;10.93;;;3.90;;
50219;SDS011;36110;51.536;7.562;2023-05-19T06:54:40;7.32;;;3.72;;
50219;SDS011;36110;51.536;7.562;2023-05-19T06:57:06;7.70;;;3.35;;
50219;SDS011;36110;51.536;7.562;2023-05-19T06:59:31;9.52;;;3.50;;
50219;SDS011;36110;51.536;7.562;2023-05-19T07:01:56;9.57;;;3.53;;
50219;SDS011;36110;51.536;7.562;2023-05-19T07:04:22;6.80;;;3.20;;
50219;SDS011;36110;51.536;7.562;2023-05-19T07:06:47;6.65;;;3.35;;
50219;SDS011;36110;51.536;7.562;2023-05-19T07:09:14;7.93;;;3.50;;
50219;SDS011;36110;51.536;7.562;2023-05-19T07:11:39;7.68;;;3.60;;
50219;SDS011;36110;51.536;7.562;2023-05-19T07:14:05;9.80;;;3.20;;
50219;SDS011;36110;51.536;7.562;2023-05-19T07:16:30;10.63;;;3.20;;
50219;SDS011;36110;51.536;7.562;2023-05-19T07:18:55;11.55;;;3.47;;
50219;SDS011;36110;51.536;7.562;2023-05-19T07:21:21;11.55;;;3.25;;
50219;SDS011;36110;51.536;7.562;2023-05-19T07:23:46;6.15;;;2.80;;
50219;SDS011;36110;51.536;7.562;2023-05-19T07:26:11;7.32;;;2.95;;
50219;SDS011;36110;51.536;7.562;2023-05-19T07:28:37;3.95;;;2.72;;
50219;SDS011;36110;51.536;7.562;2023-05-19T07:31:02;10.90;;;3.08;;
50219;SDS011;36110;51.536;7.562;2023-05-19T07:33:27;7.50;;;3.08;;
50219;SDS011;36110;51.536;7.562;2023-05-19T07:35:53;9.38;;;3.30;;
50219;SDS011;36110;51.536;7.562;2023-05-19T07:38:18;8.25;;;3.33;;
50219;SDS011;36110;51.536;7.562;2023-05-19T07:40:43;11.70;;;3.47;;
50219;SDS011;36110;51.536;7.562;2023-05-19T07:43:09;9.57;;;2.85;;
50219;SDS011;36110;51.536;7.562;2023-05-19T07:45:35;8.77;;;2.92;;
50219;SDS011;36110;51.536;7.562;2023-05-19T07:48:01;5.72;;;2.83;;
50219;SDS011;36110;51.536;7.562;2023-05-19T07:50:26;9.23;;;2.88;;
50219;SDS011;36110;51.536;7.562;2023-05-19T07:52:51;5.50;;;2.72;;
50219;SDS011;36110;51.536;7.562;2023-05-19T07:55:17;6.32;;;2.90;;
50219;SDS011;36110;51.536;7.562;2023-05-19T07:57:43;8.18;;;2.60;;
50219;SDS011;36110;51.536;7.562;2023-05-19T08:00:08;5.85;;;2.85;;
50219;SDS011;36110;51.536;7.562;2023-05-19T08:02:36;6.25;;;2.60;;
50219;SDS011;36110;51.536;7.562;2023-05-19T08:05:01;6.60;;;2.55;;
50219;SDS011;36110;51.536;7.562;2023-05-19T08:07:26;8.90;;;2.60;;
50219;SDS011;36110;51.536;7.562;2023-05-19T08:09:52;5.60;;;2.60;;
50219;SDS011;36110;51.536;7.562;2023-05-19T08:12:17;7.90;;;2.80;;
50219;SDS011;36110;51.536;7.562;2023-05-19T08:14:42;8.25;;;2.70;;
50219;SDS011;36110;51.536;7.562;2023-05-19T08:17:08;10.63;;;3.05;;
50219;SDS011;36110;51.536;7.562;2023-05-19T08:19:33;5.60;;;2.63;;
50219;SDS011;36110;51.536;7.562;2023-05-19T08:21:58;5.65;;;2.83;;
50219;SDS011;36110;51.536;7.562;2023-05-19T08:24:25;6.88;;;2.72;;
50219;SDS011;36110;51.536;7.562;2023-05-19T08:26:53;8.70;;;2.85;;
50219;SDS011;36110;51.536;7.562;2023-05-19T08:29:19;7.68;;;2.47;;
50219;SDS011;36110;51.536;7.562;2023-05-19T08:31:44;5.80;;;2.53;;
50219;SDS011;36110;51.536;7.562;2023-05-19T08:34:09;4.65;;;2.20;;
50219;SDS011;36110;51.536;7.562;2023-05-19T08:36:35;4.72;;;2.30;;
50219;SDS011;36110;51.536;7.562;2023-05-19T08:39:00;6.60;;;2.20;;
50219;SDS011;36110;51.536;7.562;2023-05-19T08:41:26;14.60;;;3.83;;
50219;SDS011;36110;51.536;7.562;2023-05-19T08:43:51;6.65;;;2.30;;
50219;SDS011;36110;51.536;7.562;2023-05-19T08:46:16;7.30;;;2.20;;
50219;SDS011;36110;51.536;7.562;2023-05-19T08:48:43;8.18;;;2.55;;
50219;SDS011;36110;51.536;7.562;2023-05-19T08:53:57;5.60;;;2.42;;
50219;SDS011;36110;51.536;7.562;2023-05-19T08:56:27;4.50;;;2.25;;
50219;SDS011;36110;51.536;7.562;2023-05-19T08:58:52;7.10;;;2.67;;
50219;SDS011;36110;51.536;7.562;2023-05-19T09:01:20;5.80;;;2.10;;
50219;SDS011;36110;51.536;7.562;2023-05-19T09:03:46;6.68;;;2.30;;
50219;SDS011;36110;51.536;7.562;2023-05-19T09:06:13;8.07;;;2.45;;
50219;SDS011;36110;51.536;7.562;2023-05-19T09:08:39;9.10;;;2.17;;
50219;SDS011;36110;51.536;7.562;2023-05-19T09:11:05;6.72;;;1.92;;
50219;SDS011;36110;51.536;7.562;2023-05-19T09:13:31;6.65;;;2.08;;
50219;SDS011;36110;51.536;7.562;2023-05-19T09:15:56;6.57;;;2.65;;
50219;SDS011;36110;51.536;7.562;2023-05-19T09:18:22;6.35;;;2.30;;
50219;SDS011;36110;51.536;7.562;2023-05-19T09:20:48;3.97;;;1.75;;
50219;SDS011;36110;51.536;7.562;2023-05-19T09:23:15;6.88;;;1.92;;
50219;SDS011;36110;51.536;7.562;2023-05-19T09:25:51;3.50;;;1.83;;
50219;SDS011;36110;51.536;7.562;2023-05-19T09:28:29;7.85;;;2.10;;
50219;SDS011;36110;51.536;7.562;2023-05-19T09:34:04;4.70;;;1.75;;
50219;SDS011;36110;51.536;7.562;2023-05-19T09:36:37;6.97;;;2.13;;
50219;SDS011;36110;51.536;7.562;2023-05-19T09:39:11;2.85;;;2.10;;
50219;SDS011;36110;51.536;7.562;2023-05-19T09:41:37;3.95;;;1.80;;
50219;SDS011;36110;51.536;7.562;2023-05-19T09:44:02;7.22;;;2.10;;
50219;SDS011;36110;51.536;7.562;2023-05-19T09:46:27;5.25;;;2.30;;
50219;SDS011;36110;51.536;7.562;2023-05-19T09:48:57;5.18;;;1.90;;
50219;SDS011;36110;51.536;7.562;2023-05-19T09:51:23;4.68;;;2.20;;
50219;SDS011;36110;51.536;7.562;2023-05-19T09:53:49;9.93;;;2.13;;
50219;SDS011;36110;51.536;7.562;2023-05-19T09:56:14;4.13;;;1.90;;
50219;SDS011;36110;51.536;7.562;2023-05-19T09:58:42;4.68;;;1.83;;
50219;SDS011;36110;51.536;7.562;2023-05-19T10:01:08;6.30;;;2.10;;
50219;SDS011;36110;51.536;7.562;2023-05-19T10:03:33;5.72;;;1.95;;
50219;SDS011;36110;51.536;7.562;2023-05-19T10:05:59;5.30;;;2.10;;
50219;SDS011;36110;51.536;7.562;2023-05-19T10:08:25;3.53;;;1.85;;
50219;SDS011;36110;51.536;7.562;2023-05-19T10:10:51;7.72;;;2.20;;
50219;SDS011;36110;51.536;7.562;2023-05-19T10:13:16;4.78;;;2.00;;
50219;SDS011;36110;51.536;7.562;2023-05-19T10:15:42;5.00;;;1.75;;
50219;SDS011;36110;51.536;7.562;2023-05-19T10:18:08;6.55;;;2.00;;
50219;SDS011;36110;51.536;7.562;2023-05-19T10:20:34;6.70;;;2.10;;
50219;SDS011;36110;51.536;7.562;2023-05-19T10:23:00;6.57;;;2.00;;
50219;SDS011;36110;51.536;7.562;2023-05-19T10:25:26;8.68;;;2.28;;
50219;SDS011;36110;51.536;7.562;2023-05-19T10:27:54;2.70;;;1.70;;
50219;SDS011;36110;51.536;7.562;2023-05-19T10:30:29;2.65;;;1.80;;
50219;SDS011;36110;51.536;7.562;2023-05-19T10:32:58;4.28;;;1.92;;
50219;SDS011;36110;51.536;7.562;2023-05-19T10:38:11;5.05;;;1.90;;
50219;SDS011;36110;51.536;7.562;2023-05-19T10:40:42;5.75;;;2.00;;
50219;SDS011;36110;51.536;7.562;2023-05-19T10:45:51;7.05;;;2.72;;
50219;SDS011;36110;51.536;7.562;2023-05-19T10:48:20;4.55;;;2.15;;
50219;SDS011;36110;51.536;7.562;2023-05-19T10:50:47;6.65;;;2.17;;
50219;SDS011;36110;51.536;7.562;2023-05-19T10:53:13;3.70;;;2.30;;
50219;SDS011;36110;51.536;7.562;2023-05-19T10:55:53;6.95;;;2.10;;
50219;SDS011;36110;51.536;7.562;2023-05-19T11:01:06;6.15;;;1.88;;
50219;SDS011;36110;51.536;7.562;2023-05-19T11:08:53;6.10;;;2.20;;
50219;SDS011;36110;51.536;7.562;2023-05-19T11:11:20;5.78;;;2.30;;
50219;SDS011;36110;51.536;7.562;2023-05-19T11:13:46;9.68;;;2.40;;
50219;SDS011;36110;51.536;7.562;2023-05-19T11:16:25;7.50;;;2.70;;
50219;SDS011;36110;51.536;7.562;2023-05-19T11:18:52;8.80;;;2.80;;
50219;SDS011;36110;51.536;7.562;2023-05-19T11:21:18;5.25;;;2.15;;
50219;SDS011;36110;51.536;7.562;2023-05-19T11:23:44;8.80;;;1.98;;
50219;SDS011;36110;51.536;7.562;2023-05-19T11:26:09;3.85;;;1.95;;
50219;SDS011;36110;51.536;7.562;2023-05-19T11:28:36;3.90;;;1.80;;
50219;SDS011;36110;51.536;7.562;2023-05-19T11:31:03;6.43;;;2.30;;
50219;SDS011;36110;51.536;7.562;2023-05-19T11:33:31;4.88;;;2.10;;
50219;SDS011;36110;51.536;7.562;2023-05-19T11:35:57;3.72;;;1.70;;
50219;SDS011;36110;51.536;7.562;2023-05-19T11:38:23;3.97;;;1.90;;
50219;SDS011;36110;51.536;7.562;2023-05-19T11:40:51;3.88;;;1.85;;
50219;SDS011;36110;51.536;7.562;2023-05-19T11:43:17;2.58;;;1.70;;
50219;SDS011;36110;51.536;7.562;2023-05-19T11:45:42;8.10;;;2.40;;
50219;SDS011;36110;51.536;7.562;2023-05-19T11:48:11;4.75;;;1.90;;
50219;SDS011;36110;51.536;7.562;2023-05-19T11:50:36;4.10;;;1.70;;
50219;SDS011;36110;51.536;7.562;2023-05-19T11:53:04;2.88;;;1.60;;
50219;SDS011;36110;51.536;7.562;2023-05-19T11:55:30;4.85;;;1.70;;
50219;SDS011;36110;51.536;7.562;2023-05-19T11:58:00;6.82;;;2.17;;
50219;SDS011;36110;51.536;7.562;2023-05-19T12:00:27;7.65;;;2.20;;
50219;SDS011;36110;51.536;7.562;2023-05-19T12:03:01;4.93;;;1.90;;
50219;SDS011;36110;51.536;7.562;2023-05-19T12:05:26;3.88;;;1.70;;
50219;SDS011;36110;51.536;7.562;2023-05-19T12:07:53;5.80;;;2.00;;
50219;SDS011;36110;51.536;7.562;2023-05-19T12:12:47;6.95;;;1.92;;
50219;SDS011;36110;51.536;7.562;2023-05-19T12:15:15;5.57;;;1.95;;
50219;SDS011;36110;51.536;7.562;2023-05-19T12:17:43;5.38;;;1.80;;
50219;SDS011;36110;51.536;7.562;2023-05-19T12:20:10;5.00;;;1.70;;
50219;SDS011;36110;51.536;7.562;2023-05-19T12:22:36;4.40;;;1.77;;
50219;SDS011;36110;51.536;7.562;2023-05-19T12:25:02;6.38;;;1.70;;
50219;SDS011;36110;51.536;7.562;2023-05-19T12:27:29;5.13;;;1.95;;
50219;SDS011;36110;51.536;7.562;2023-05-19T12:29:55;6.55;;;2.10;;
50219;SDS011;36110;51.536;7.562;2023-05-19T12:32:24;4.80;;;2.20;;
50219;SDS011;36110;51.536;7.562;2023-05-19T12:34:50;3.38;;;1.52;;
50219;SDS011;36110;51.536;7.562;2023-05-19T12:37:16;3.85;;;1.70;;
50219;SDS011;36110;51.536;7.562;2023-05-19T12:39:43;4.18;;;1.90;;
50219;SDS011;36110;51.536;7.562;2023-05-19T12:42:10;5.50;;;1.80;;
50219;SDS011;36110;51.536;7.562;2023-05-19T12:44:36;3.63;;;1.58;;
50219;SDS011;36110;51.536;7.562;2023-05-19T12:47:07;2.47;;;1.50;;
50219;SDS011;36110;51.536;7.562;2023-05-19T12:49:33;4.47;;;1.83;;
50219;SDS011;36110;51.536;7.562;2023-05-19T12:52:01;5.78;;;1.80;;
50219;SDS011;36110;51.536;7.562;2023-05-19T12:54:28;3.45;;;1.67;;
50219;SDS011;36110;51.536;7.562;2023-05-19T12:56:57;6.50;;;1.80;;
50219;SDS011;36110;51.536;7.562;2023-05-19T12:59:23;2.47;;;1.52;;
50219;SDS011;36110;51.536;7.562;2023-05-19T13:01:58;4.13;;;1.40;;
50219;SDS011;36110;51.536;7.562;2023-05-19T13:04:24;5.13;;;1.60;;
50219;SDS011;36110;51.536;7.562;2023-05-19T13:06:51;4.65;;;1.65;;
50219;SDS011;36110;51.536;7.562;2023-05-19T13:09:17;5.97;;;1.90;;
50219;SDS011;36110;51.536;7.562;2023-05-19T13:11:42;2.97;;;1.50;;
50219;SDS011;36110;51.536;7.562;2023-05-19T13:14:10;3.60;;;1.60;;
50219;SDS011;36110;51.536;7.562;2023-05-19T13:16:36;4.55;;;2.00;;
50219;SDS011;36110;51.536;7.562;2023-05-19T13:19:01;5.80;;;2.00;;
50219;SDS011;36110;51.536;7.562;2023-05-19T13:21:27;4.68;;;1.67;;
50219;SDS011;36110;51.536;7.562;2023-05-19T13:23:52;2.63;;;1.67;;
50219;SDS011;36110;51.536;7.562;2023-05-19T13:26:17;4.30;;;1.48;;
50219;SDS011;36110;51.536;7.562;2023-05-19T13:28:43;5.07;;;1.80;;
50219;SDS011;36110;51.536;7.562;2023-05-19T13:31:08;2.33;;;1.55;;
50219;SDS011;36110;51.536;7.562;2023-05-19T13:33:34;4.75;;;1.70;;
50219;SDS011;36110;51.536;7.562;2023-05-19T13:35:59;3.00;;;1.70;;
50219;SDS011;36110;51.536;7.562;2023-05-19T13:38:24;2.90;;;1.30;;
50219;SDS011;36110;51.536;7.562;2023-05-19T13:40:50;5.22;;;1.70;;
50219;SDS011;36110;51.536;7.562;2023-05-19T13:43:15;3.47;;;1.73;;
50219;SDS011;36110;51.536;7.562;2023-05-19T13:45:40;4.45;;;1.73;;
50219;SDS011;36110;51.536;7.562;2023-05-19T13:48:08;4.93;;;1.80;;
50219;SDS011;36110;51.536;7.562;2023-05-19T13:50:34;6.03;;;2.00;;
50219;SDS011;36110;51.536;7.562;2023-05-19T13:53:00;5.63;;;1.80;;
50219;SDS011;36110;51.536;7.562;2023-05-19T13:55:25;6.55;;;1.80;;
50219;SDS011;36110;51.536;7.562;2023-05-19T13:57:51;3.53;;;1.75;;
50219;SDS011;36110;51.536;7.562;2023-05-19T14:00:17;1.80;;;1.30;;
50219;SDS011;36110;51.536;7.562;2023-05-19T14:02:43;3.30;;;2.30;;
50219;SDS011;36110;51.536;7.562;2023-05-19T14:05:08;6.80;;;2.20;;
50219;SDS011;36110;51.536;7.562;2023-05-19T14:07:33;6.18;;;1.90;;
50219;SDS011;36110;51.536;7.562;2023-05-19T14:09:59;3.08;;;1.95;;
50219;SDS011;36110;51.536;7.562;2023-05-19T14:12:24;8.43;;;2.17;;
50219;SDS011;36110;51.536;7.562;2023-05-19T14:14:50;3.42;;;2.05;;
50219;SDS011;36110;51.536;7.562;2023-05-19T14:17:15;2.50;;;1.60;;
50219;SDS011;36110;51.536;7.562;2023-05-19T14:19:41;6.47;;;1.80;;
50219;SDS011;36110;51.536;7.562;2023-05-19T14:22:06;5.00;;;1.90;;
50219;SDS011;36110;51.536;7.562;2023-05-19T14:24:31;3.60;;;1.50;;
50219;SDS011;36110;51.536;7.562;2023-05-19T14:26:57;5.00;;;2.22;;
50219;SDS011;36110;51.536;7.562;2023-05-19T14:29:22;4.90;;;1.90;;
50219;SDS011;36110;51.536;7.562;2023-05-19T14:31:47;4.88;;;1.98;;
50219;SDS011;36110;51.536;7.562;2023-05-19T14:34:13;3.22;;;2.00;;
50219;SDS011;36110;51.536;7.562;2023-05-19T14:36:41;6.97;;;1.95;;
50219;SDS011;36110;51.536;7.562;2023-05-19T14:39:07;2.65;;;1.80;;
50219;SDS011;36110;51.536;7.562;2023-05-19T14:41:32;3.85;;;2.00;;
50219;SDS011;36110;51.536;7.562;2023-05-19T14:43:58;2.75;;;1.77;;
50219;SDS011;36110;51.536;7.562;2023-05-19T14:46:23;6.97;;;2.10;;
50219;SDS011;36110;51.536;7.562;2023-05-19T14:48:48;4.47;;;1.80;;
50219;SDS011;36110;51.536;7.562;2023-05-19T14:51:14;4.70;;;1.75;;
50219;SDS011;36110;51.536;7.562;2023-05-19T14:53:39;4.38;;;1.80;;
50219;SDS011;36110;51.536;7.562;2023-05-19T14:56:05;7.20;;;1.80;;
50219;SDS011;36110;51.536;7.562;2023-05-19T14:58:30;5.63;;;2.00;;
50219;SDS011;36110;51.536;7.562;2023-05-19T15:00:56;3.30;;;1.70;;
50219;SDS011;36110;51.536;7.562;2023-05-19T15:03:22;2.65;;;1.70;;
50219;SDS011;36110;51.536;7.562;2023-05-19T15:05:48;3.75;;;1.90;;
50219;SDS011;36110;51.536;7.562;2023-05-19T15:08:14;4.03;;;1.90;;
50219;SDS011;36110;51.536;7.562;2023-05-19T15:10:39;7.88;;;2.03;;
50219;SDS011;36110;51.536;7.562;2023-05-19T15:13:04;5.03;;;1.85;;
50219;SDS011;36110;51.536;7.562;2023-05-19T15:15:30;4.00;;;2.05;;
50219;SDS011;36110;51.536;7.562;2023-05-19T15:17:55;3.45;;;2.10;;
50219;SDS011;36110;51.536;7.562;2023-05-19T15:20:21;3.42;;;1.67;;
50219;SDS011;36110;51.536;7.562;2023-05-19T15:22:46;3.90;;;2.03;;
50219;SDS011;36110;51.536;7.562;2023-05-19T15:25:12;3.17;;;1.88;;
50219;SDS011;36110;51.536;7.562;2023-05-19T15:27:37;3.17;;;1.85;;
50219;SDS011;36110;51.536;7.562;2023-05-19T15:30:03;4.20;;;1.70;;
50219;SDS011;36110;51.536;7.562;2023-05-19T15:32:29;3.65;;;1.80;;
50219;SDS011;36110;51.536;7.562;2023-05-19T15:34:55;3.70;;;1.90;;
50219;SDS011;36110;51.536;7.562;2023-05-19T15:37:20;3.22;;;1.65;;
50219;SDS011;36110;51.536;7.562;2023-05-19T15:39:45;6.68;;;1.75;;
50219;SDS011;36110;51.536;7.562;2023-05-19T15:42:11;5.18;;;2.00;;
50219;SDS011;36110;51.536;7.562;2023-05-19T15:44:36;3.47;;;1.88;;
50219;SDS011;36110;51.536;7.562;2023-05-19T15:47:02;3.70;;;1.90;;
50219;SDS011;36110;51.536;7.562;2023-05-19T15:49:27;3.75;;;1.90;;